Rysy — C6ZA3 — position and weather

sailwx.info

Track history (hours):
 
Tides and Currents Weather Stations Pressure Air Temp Water Temp Dewpoint Dewpoint Depression Visibility Wind Speed Wind Dir Waves Ship Positions

Rysy

Last reported at 2017-Apr-16 16:32 UTC. Time now 2017-Apr-30 18:48 UTC.
Position N 36°10' E 014°48'.
Warning: this ship's position is 14 days out of date.

Length 229 m; draft 13.3 m.

Type: Cargo ship. MMSI: 311051200.

Date/timePositionNaut miles runAvg speedWind from/ knotsBaromVisibWave heightAir tempDewpointWater temp
2017-Apr-16 16:32N 36°10' E 014°48'111.6
2017-Apr-16 16:28N 36°10' E 014°47'611.6
2017-Apr-16 15:59N 36°12' E 014°40'611.7
2017-Apr-16 15:29N 36°14' E 014°34'612.1
2017-Apr-16 15:00N 36°15' E 014°26'1212.3
2017-Apr-16 14:00N 36°19' E 014°12'612.3
2017-Apr-16 13:30N 36°21' E 014°05'612.2
2017-Apr-16 12:59N 36°23' E 013°57'612.2
2017-Apr-16 12:30N 36°25' E 013°51'612.2
2017-Apr-16 12:00N 36°28' E 013°44'612.2
2017-Apr-16 11:30N 36°30' E 013°37'612.2
2017-Apr-16 11:00N 36°33' E 013°30'712.0
2017-Apr-16 10:24N 36°36' E 013°22'1411.8
2017-Apr-16 09:12N 36°41' E 013°05'512.0
2017-Apr-16 08:49N 36°43' E 013°00'811.8
2017-Apr-16 08:08N 36°46' E 012°51'211.8
2017-Apr-16 07:59N 36°47' E 012°49'612.0
2017-Apr-16 07:30N 36°50' E 012°42'612.1
2017-Apr-16 07:00N 36°52' E 012°36'612.3
2017-Apr-16 06:30N 36°54' E 012°28'612.2
2017-Apr-16 06:00N 36°57' E 012°21'711.9
2017-Apr-16 05:24N 36°59' E 012°13'4711.8
2017-Apr-16 01:25N 37°18' E 011°19'511.9
2017-Apr-16 00:58N 37°21' E 011°13'612.0
2017-Apr-16 00:30N 37°23' E 011°07'1011.9
2017-Apr-15 23:41N 37°26' E 010°55'211.5
2017-Apr-15 23:30N 37°27' E 010°52'611.4
2017-Apr-15 23:00N 37°28' E 010°46'611.4
2017-Apr-15 22:30N 37°30' E 010°38'26911.7
2017-Apr-14 23:29N 37°17' E 004°60'5911.9
2017-Apr-14 18:32N 37°14' E 003°46'112.0
2017-Apr-14 18:30N 37°14' E 003°45'1212.0
2017-Apr-14 17:28N 37°12' E 003°30'612.1
2017-Apr-14 16:59N 37°11' E 003°22'1711.9
2017-Apr-14 15:35N 37°08' E 003°02'111.9
2017-Apr-14 15:28N 37°08' E 003°00'511.8
2017-Apr-14 15:00N 37°07' E 002°53'611.7
2017-Apr-14 14:30N 37°06' E 002°46'1212.3
2017-Apr-14 13:30N 37°04' E 002°31'612.3
2017-Apr-14 13:00N 37°03' E 002°24'612.2
2017-Apr-14 12:30N 37°02' E 002°16'612.1
2017-Apr-14 12:00N 37°00' E 002°08'812.2
2017-Apr-14 11:21N 36°59' E 001°59'1312.1
2017-Apr-14 10:16N 36°57' E 001°43'312.1
2017-Apr-14 09:59N 36°57' E 001°38'912.3
2017-Apr-14 09:15N 36°55' E 001°27'2512.4
2017-Apr-14 07:15N 36°50' E 000°57'313.1
2017-Apr-14 06:59N 36°49' E 000°53'813.1
2017-Apr-14 06:24N 36°48' E 000°43'713.1
2017-Apr-14 05:54N 36°47' E 000°35'613.3
2017-Apr-14 05:28N 36°46' E 000°28'613.2
2017-Apr-14 05:00N 36°45' E 000°20'1212.8
2017-Apr-14 04:02N 36°42' E 000°05'212.6
2017-Apr-14 03:53N 36°41' E 000°03'512.5
2017-Apr-14 03:30N 36°40' W 000°02'612.3
2017-Apr-14 03:00N 36°38' W 000°10'912.7
2017-Apr-14 02:17N 36°37' W 000°21'1612.5
2017-Apr-14 01:02N 36°36' W 000°40'012.5
2017-Apr-14 01:00N 36°36' W 000°41'21312.4
2017-Apr-13 07:46N 36°01' W 005°02'312.5
2017-Apr-13 07:30N 36°00' W 005°06'713.5
2017-Apr-13 07:00N 35°60' W 005°14'714.0
2017-Apr-13 06:30N 35°58' W 005°22'714.5
2017-Apr-13 06:00N 35°56' W 005°31'914.6
2017-Apr-13 05:25N 35°55' W 005°41'615.1
2017-Apr-13 05:00N 35°55' W 005°49'8112.4
2017-Apr-12 22:29N 36°10' W 007°28'612.5
2017-Apr-12 21:59N 36°12' W 007°35'4712.5
2017-Apr-12 18:14N 36°24' W 008°31'1312.1
2017-Apr-12 17:07N 36°27' W 008°47'411.7
2017-Apr-12 16:47N 36°28' W 008°52'711.9
2017-Apr-12 16:10N 36°30' W 009°01'212.4
2017-Apr-12 16:00N 36°31' W 009°03'611.7
2017-Apr-12 15:30N 36°33' W 009°10'611.7
2017-Apr-12 15:00N 36°34' W 009°17'611.3
2017-Apr-12 14:30N 36°38' W 009°23'1211.6
2017-Apr-12 13:30N 36°47' W 009°32'611.9
2017-Apr-12 13:00N 36°52' W 009°34'611.9
2017-Apr-12 12:30N 36°58' W 009°36'611.9
2017-Apr-12 12:00N 37°04' W 009°37'612.2
2017-Apr-12 11:30N 37°10' W 009°39'612.4
2017-Apr-12 11:00N 37°16' W 009°40'612.3
2017-Apr-12 10:30N 37°22' W 009°42'612.6
2017-Apr-12 10:00N 37°28' W 009°44'612.4
2017-Apr-12 09:30N 37°34' W 009°46'612.3
2017-Apr-12 09:00N 37°40' W 009°48'612.2
2017-Apr-12 08:30N 37°46' W 009°50'612.0
2017-Apr-12 08:00N 37°52' W 009°51'612.1
2017-Apr-12 07:30N 37°58' W 009°53'612.4
2017-Apr-12 07:00N 38°04' W 009°55'611.9
2017-Apr-12 06:30N 38°10' W 009°57'611.8
2017-Apr-12 06:00N 38°15' W 009°58'611.7
2017-Apr-12 05:30N 38°21' W 009°60'611.6
2017-Apr-12 05:00N 38°27' W 010°02'611.7
2017-Apr-12 04:30N 38°33' W 010°03'611.7
2017-Apr-12 04:00N 38°38' W 010°05'611.7
2017-Apr-12 03:30N 38°44' W 010°06'611.9
2017-Apr-12 03:00N 38°50' W 010°06'611.5
2017-Apr-12 02:30N 38°56' W 010°06'611.7
2017-Apr-12 02:00N 39°02' W 010°06'611.6
2017-Apr-12 01:30N 39°07' W 010°05'611.6
2017-Apr-12 01:00N 39°13' W 010°05'611.6
2017-Apr-12 00:30N 39°19' W 010°05'611.9
2017-Apr-12 00:00N 39°25' W 010°05'612.0
2017-Apr-11 23:30N 39°31' W 010°05'611.7
2017-Apr-11 23:00N 39°37' W 010°05'611.7
2017-Apr-11 22:26N 39°43' W 010°05'511.9
2017-Apr-11 22:00N 39°49' W 010°05'611.8
2017-Apr-11 21:30N 39°54' W 010°05'611.9
2017-Apr-11 21:00N 40°00' W 010°05'611.9
2017-Apr-11 20:30N 40°06' W 010°06'612.0
2017-Apr-11 20:00N 40°12' W 010°06'612.5
2017-Apr-11 19:30N 40°18' W 010°06'611.9
2017-Apr-11 19:00N 40°24' W 010°06'612.0
2017-Apr-11 18:30N 40°31' W 010°06'1212.1
2017-Apr-11 17:31N 40°42' W 010°06'111.8
2017-Apr-11 17:26N 40°43' W 010°06'511.9
2017-Apr-11 17:00N 40°48' W 010°06'51511.6
2017-Apr-09 20:46N 48°50' W 005°50'3812.7
2017-Apr-09 17:45N 49°11' W 005°02'311.5
2017-Apr-09 17:29N 49°13' W 004°57'1510.8
2017-Apr-09 16:04N 49°21' W 004°37'110.6
2017-Apr-09 15:59N 49°21' W 004°36'510.3
2017-Apr-09 15:30N 49°24' W 004°30'510.5
2017-Apr-09 15:00N 49°26' W 004°22'1111.0
2017-Apr-09 14:00N 49°32' W 004°08'711.7
2017-Apr-09 13:27N 49°35' W 003°59'712.2
2017-Apr-09 12:55N 49°38' W 003°51'512.7
2017-Apr-09 12:30N 49°41' W 003°44'713.1
2017-Apr-09 12:00N 49°45' W 003°35'713.4
2017-Apr-09 11:29N 49°48' W 003°26'613.3
2017-Apr-09 11:00N 49°52' W 003°17'713.1
2017-Apr-09 10:30N 49°55' W 003°09'612.6
2017-Apr-09 10:00N 49°58' W 003°00'612.1
2017-Apr-09 09:28N 50°01' W 002°51'37 9.9
2017-Apr-09 05:43N 50°11' W 001°55'3 9.5
2017-Apr-09 05:23N 50°12' W 001°51'4 9.9
2017-Apr-09 04:59N 50°13' W 001°45'510.2
2017-Apr-09 04:30N 50°14' W 001°37'611.5
2017-Apr-09 04:00N 50°15' W 001°28'612.4
2017-Apr-09 03:30N 50°17' W 001°19'713.4
2017-Apr-09 03:00N 50°19' W 001°09'714.2
2017-Apr-09 02:30N 50°21' W 000°58'714.5
2017-Apr-09 02:00N 50°23' W 000°48'714.5
2017-Apr-09 01:30N 50°25' W 000°37'714.3
2017-Apr-09 01:00N 50°27' W 000°26'713.9
2017-Apr-09 00:30N 50°29' W 000°15'713.6
2017-Apr-09 00:01N 50°31' W 000°05'713.3
2017-Apr-08 23:31N 50°33' E 000°05'713.0
2017-Apr-08 23:01N 50°34' E 000°15'612.6
2017-Apr-08 22:31N 50°36' E 000°24'612.1
2017-Apr-08 22:00N 50°38' E 000°33'611.7
2017-Apr-08 21:31N 50°41' E 000°41'611.5
2017-Apr-08 21:00N 50°44' E 000°49'611.4
2017-Apr-08 20:30N 50°48' E 000°56'611.6
2017-Apr-08 20:00N 50°51' E 001°03'612.3
2017-Apr-08 19:30N 50°55' E 001°11'713.4
2017-Apr-08 19:00N 50°60' E 001°19'714.7
2017-Apr-08 18:30N 51°04' E 001°28'815.6
2017-Apr-08 18:01N 51°09' E 001°38'714.2
2017-Apr-08 17:30N 51°14' E 001°46'714.3
2017-Apr-08 17:00N 51°20' E 001°51'713.3
2017-Apr-08 16:30N 51°26' E 001°57'612.8
2017-Apr-08 16:00N 51°31' E 002°04'612.2
2017-Apr-08 15:30N 51°35' E 002°10'611.8
2017-Apr-08 15:00N 51°40' E 002°16'1311.1
2017-Apr-08 13:51N 51°50' E 002°29'410.6
2017-Apr-08 13:30N 51°53' E 002°33'610.1
2017-Apr-08 12:57N 51°58' E 002°36'510.4
2017-Apr-08 12:29N 52°03' E 002°38'810.3
2017-Apr-08 11:45N 52°10' E 002°40'410.8
2017-Apr-08 11:21N 52°14' E 002°43'1311.6
2017-Apr-08 10:15N 52°26' E 002°52'812.4
2017-Apr-08 09:37N 52°33' E 002°57'512.8
2017-Apr-08 09:13N 52°37' E 003°01'4013.0
2017-Apr-08 06:09N 53°14' E 003°26'2212.2
2017-Apr-08 04:19N 53°36' E 003°36'411.8
2017-Apr-08 04:00N 53°39' E 003°38'811.0
2017-Apr-08 03:17N 53°46' E 003°46'911.6
2017-Apr-08 02:32N 53°51' E 003°57'15911.9
2017-Apr-07 13:11N 55°59' E 006°42'212.1
2017-Apr-07 13:00N 56°01' E 006°44'15011.3
2017-Apr-06 23:41N 57°48' E 009°55'310.7
2017-Apr-06 23:22N 57°49' E 010°02'710.5
2017-Apr-06 22:40N 57°49' E 010°15'210.3
2017-Apr-06 22:28N 57°49' E 010°19'510.1
2017-Apr-06 21:58N 57°49' E 010°29'4 9.7
2017-Apr-06 21:30N 57°48' E 010°37'5 9.3
2017-Apr-06 21:00N 57°47' E 010°46'611.3
2017-Apr-06 20:30N 57°42' E 010°46'5 9.1
2017-Apr-06 20:00N 57°38' E 010°42'0 0.8
2017-Apr-06 19:24N 57°38' E 010°42'0 0.1
2017-Apr-06 19:00N 57°38' E 010°42'0 0.0
2017-Apr-06 18:06N 57°38' E 010°42'0 0.0
2017-Apr-06 17:48N 57°38' E 010°42'0 0.0
2017-Apr-06 17:27N 57°38' E 010°42'0 0.0
2017-Apr-06 17:00N 57°38' E 010°42'  
Track history (hours):
 
Tides and Currents Weather Stations Pressure Air Temp Water Temp Dewpoint Dewpoint Depression Visibility Wind Speed Wind Dir Waves Ship Positions

Rysy

Last reported at 2017-Apr-16 16:32 UTC. Time now 2017-Apr-30 18:48 UTC.
Position N 36°10' E 014°48'.
Warning: this ship's position is 14 days out of date.

Length 229 m; draft 13.3 m.

Type: Cargo ship. MMSI: 311051200.

Date/timePositionNaut miles runAvg speedWind from/ knotsBaromVisibWave heightAir tempDewpointWater temp
2017-Apr-16 16:32N 36°10' E 014°48'111.6
2017-Apr-16 16:28N 36°10' E 014°47'611.6
2017-Apr-16 15:59N 36°12' E 014°40'611.7
2017-Apr-16 15:29N 36°14' E 014°34'612.1
2017-Apr-16 15:00N 36°15' E 014°26'1212.3
2017-Apr-16 14:00N 36°19' E 014°12'612.3
2017-Apr-16 13:30N 36°21' E 014°05'612.2
2017-Apr-16 12:59N 36°23' E 013°57'612.2
2017-Apr-16 12:30N 36°25' E 013°51'612.2
2017-Apr-16 12:00N 36°28' E 013°44'612.2
2017-Apr-16 11:30N 36°30' E 013°37'612.2
2017-Apr-16 11:00N 36°33' E 013°30'712.0
2017-Apr-16 10:24N 36°36' E 013°22'1411.8
2017-Apr-16 09:12N 36°41' E 013°05'512.0
2017-Apr-16 08:49N 36°43' E 013°00'811.8
2017-Apr-16 08:08N 36°46' E 012°51'211.8
2017-Apr-16 07:59N 36°47' E 012°49'612.0
2017-Apr-16 07:30N 36°50' E 012°42'612.1
2017-Apr-16 07:00N 36°52' E 012°36'612.3
2017-Apr-16 06:30N 36°54' E 012°28'612.2
2017-Apr-16 06:00N 36°57' E 012°21'711.9
2017-Apr-16 05:24N 36°59' E 012°13'4711.8
2017-Apr-16 01:25N 37°18' E 011°19'511.9
2017-Apr-16 00:58N 37°21' E 011°13'612.0
2017-Apr-16 00:30N 37°23' E 011°07'1011.9
2017-Apr-15 23:41N 37°26' E 010°55'211.5
2017-Apr-15 23:30N 37°27' E 010°52'611.4
2017-Apr-15 23:00N 37°28' E 010°46'611.4
2017-Apr-15 22:30N 37°30' E 010°38'26911.7
2017-Apr-14 23:29N 37°17' E 004°60'5911.9
2017-Apr-14 18:32N 37°14' E 003°46'112.0
2017-Apr-14 18:30N 37°14' E 003°45'1212.0
2017-Apr-14 17:28N 37°12' E 003°30'612.1
2017-Apr-14 16:59N 37°11' E 003°22'1711.9
2017-Apr-14 15:35N 37°08' E 003°02'111.9
2017-Apr-14 15:28N 37°08' E 003°00'511.8
2017-Apr-14 15:00N 37°07' E 002°53'611.7
2017-Apr-14 14:30N 37°06' E 002°46'1212.3
2017-Apr-14 13:30N 37°04' E 002°31'612.3
2017-Apr-14 13:00N 37°03' E 002°24'612.2
2017-Apr-14 12:30N 37°02' E 002°16'612.1
2017-Apr-14 12:00N 37°00' E 002°08'812.2
2017-Apr-14 11:21N 36°59' E 001°59'1312.1
2017-Apr-14 10:16N 36°57' E 001°43'312.1
2017-Apr-14 09:59N 36°57' E 001°38'912.3
2017-Apr-14 09:15N 36°55' E 001°27'2512.4
2017-Apr-14 07:15N 36°50' E 000°57'313.1
2017-Apr-14 06:59N 36°49' E 000°53'813.1
2017-Apr-14 06:24N 36°48' E 000°43'713.1
2017-Apr-14 05:54N 36°47' E 000°35'613.3
2017-Apr-14 05:28N 36°46' E 000°28'613.2
2017-Apr-14 05:00N 36°45' E 000°20'1212.8
2017-Apr-14 04:02N 36°42' E 000°05'212.6
2017-Apr-14 03:53N 36°41' E 000°03'512.5
2017-Apr-14 03:30N 36°40' W 000°02'612.3
2017-Apr-14 03:00N 36°38' W 000°10'912.7
2017-Apr-14 02:17N 36°37' W 000°21'1612.5
2017-Apr-14 01:02N 36°36' W 000°40'012.5
2017-Apr-14 01:00N 36°36' W 000°41'21312.4
2017-Apr-13 07:46N 36°01' W 005°02'312.5
2017-Apr-13 07:30N 36°00' W 005°06'713.5
2017-Apr-13 07:00N 35°60' W 005°14'714.0
2017-Apr-13 06:30N 35°58' W 005°22'714.5
2017-Apr-13 06:00N 35°56' W 005°31'914.6
2017-Apr-13 05:25N 35°55' W 005°41'615.1
2017-Apr-13 05:00N 35°55' W 005°49'8112.4
2017-Apr-12 22:29N 36°10' W 007°28'612.5
2017-Apr-12 21:59N 36°12' W 007°35'4712.5
2017-Apr-12 18:14N 36°24' W 008°31'1312.1
2017-Apr-12 17:07N 36°27' W 008°47'411.7
2017-Apr-12 16:47N 36°28' W 008°52'711.9
2017-Apr-12 16:10N 36°30' W 009°01'212.4
2017-Apr-12 16:00N 36°31' W 009°03'611.7
2017-Apr-12 15:30N 36°33' W 009°10'611.7
2017-Apr-12 15:00N 36°34' W 009°17'611.3
2017-Apr-12 14:30N 36°38' W 009°23'1211.6
2017-Apr-12 13:30N 36°47' W 009°32'611.9
2017-Apr-12 13:00N 36°52' W 009°34'611.9
2017-Apr-12 12:30N 36°58' W 009°36'611.9
2017-Apr-12 12:00N 37°04' W 009°37'612.2
2017-Apr-12 11:30N 37°10' W 009°39'612.4
2017-Apr-12 11:00N 37°16' W 009°40'612.3
2017-Apr-12 10:30N 37°22' W 009°42'612.6
2017-Apr-12 10:00N 37°28' W 009°44'612.4
2017-Apr-12 09:30N 37°34' W 009°46'612.3
2017-Apr-12 09:00N 37°40' W 009°48'612.2
2017-Apr-12 08:30N 37°46' W 009°50'612.0
2017-Apr-12 08:00N 37°52' W 009°51'612.1
2017-Apr-12 07:30N 37°58' W 009°53'612.4
2017-Apr-12 07:00N 38°04' W 009°55'611.9
2017-Apr-12 06:30N 38°10' W 009°57'611.8
2017-Apr-12 06:00N 38°15' W 009°58'611.7
2017-Apr-12 05:30N 38°21' W 009°60'611.6
2017-Apr-12 05:00N 38°27' W 010°02'611.7
2017-Apr-12 04:30N 38°33' W 010°03'611.7
2017-Apr-12 04:00N 38°38' W 010°05'611.7
2017-Apr-12 03:30N 38°44' W 010°06'611.9
2017-Apr-12 03:00N 38°50' W 010°06'611.5
2017-Apr-12 02:30N 38°56' W 010°06'611.7
2017-Apr-12 02:00N 39°02' W 010°06'611.6
2017-Apr-12 01:30N 39°07' W 010°05'611.6
2017-Apr-12 01:00N 39°13' W 010°05'611.6
2017-Apr-12 00:30N 39°19' W 010°05'611.9
2017-Apr-12 00:00N 39°25' W 010°05'612.0
2017-Apr-11 23:30N 39°31' W 010°05'611.7
2017-Apr-11 23:00N 39°37' W 010°05'611.7
2017-Apr-11 22:26N 39°43' W 010°05'511.9
2017-Apr-11 22:00N 39°49' W 010°05'611.8
2017-Apr-11 21:30N 39°54' W 010°05'611.9
2017-Apr-11 21:00N 40°00' W 010°05'611.9
2017-Apr-11 20:30N 40°06' W 010°06'612.0
2017-Apr-11 20:00N 40°12' W 010°06'612.5
2017-Apr-11 19:30N 40°18' W 010°06'611.9
2017-Apr-11 19:00N 40°24' W 010°06'612.0
2017-Apr-11 18:30N 40°31' W 010°06'1212.1
2017-Apr-11 17:31N 40°42' W 010°06'111.8
2017-Apr-11 17:26N 40°43' W 010°06'511.9
2017-Apr-11 17:00N 40°48' W 010°06'51511.6
2017-Apr-09 20:46N 48°50' W 005°50'3812.7
2017-Apr-09 17:45N 49°11' W 005°02'311.5
2017-Apr-09 17:29N 49°13' W 004°57'1510.8
2017-Apr-09 16:04N 49°21' W 004°37'110.6
2017-Apr-09 15:59N 49°21' W 004°36'510.3
2017-Apr-09 15:30N 49°24' W 004°30'510.5
2017-Apr-09 15:00N 49°26' W 004°22'1111.0
2017-Apr-09 14:00N 49°32' W 004°08'711.7
2017-Apr-09 13:27N 49°35' W 003°59'712.2
2017-Apr-09 12:55N 49°38' W 003°51'512.7
2017-Apr-09 12:30N 49°41' W 003°44'713.1
2017-Apr-09 12:00N 49°45' W 003°35'713.4
2017-Apr-09 11:29N 49°48' W 003°26'613.3
2017-Apr-09 11:00N 49°52' W 003°17'713.1
2017-Apr-09 10:30N 49°55' W 003°09'612.6
2017-Apr-09 10:00N 49°58' W 003°00'612.1
2017-Apr-09 09:28N 50°01' W 002°51'37 9.9
2017-Apr-09 05:43N 50°11' W 001°55'3 9.5
2017-Apr-09 05:23N 50°12' W 001°51'4 9.9
2017-Apr-09 04:59N 50°13' W 001°45'510.2
2017-Apr-09 04:30N 50°14' W 001°37'611.5
2017-Apr-09 04:00N 50°15' W 001°28'612.4
2017-Apr-09 03:30N 50°17' W 001°19'713.4
2017-Apr-09 03:00N 50°19' W 001°09'714.2
2017-Apr-09 02:30N 50°21' W 000°58'714.5
2017-Apr-09 02:00N 50°23' W 000°48'714.5
2017-Apr-09 01:30N 50°25' W 000°37'714.3
2017-Apr-09 01:00N 50°27' W 000°26'713.9
2017-Apr-09 00:30N 50°29' W 000°15'713.6
2017-Apr-09 00:01N 50°31' W 000°05'713.3
2017-Apr-08 23:31N 50°33' E 000°05'713.0
2017-Apr-08 23:01N 50°34' E 000°15'612.6
2017-Apr-08 22:31N 50°36' E 000°24'612.1
2017-Apr-08 22:00N 50°38' E 000°33'611.7
2017-Apr-08 21:31N 50°41' E 000°41'611.5
2017-Apr-08 21:00N 50°44' E 000°49'611.4
2017-Apr-08 20:30N 50°48' E 000°56'611.6
2017-Apr-08 20:00N 50°51' E 001°03'612.3
2017-Apr-08 19:30N 50°55' E 001°11'713.4
2017-Apr-08 19:00N 50°60' E 001°19'714.7
2017-Apr-08 18:30N 51°04' E 001°28'815.6
2017-Apr-08 18:01N 51°09' E 001°38'714.2
2017-Apr-08 17:30N 51°14' E 001°46'714.3
2017-Apr-08 17:00N 51°20' E 001°51'713.3
2017-Apr-08 16:30N 51°26' E 001°57'612.8
2017-Apr-08 16:00N 51°31' E 002°04'612.2
2017-Apr-08 15:30N 51°35' E 002°10'611.8
2017-Apr-08 15:00N 51°40' E 002°16'1311.1
2017-Apr-08 13:51N 51°50' E 002°29'410.6
2017-Apr-08 13:30N 51°53' E 002°33'610.1
2017-Apr-08 12:57N 51°58' E 002°36'510.4
2017-Apr-08 12:29N 52°03' E 002°38'810.3
2017-Apr-08 11:45N 52°10' E 002°40'410.8
2017-Apr-08 11:21N 52°14' E 002°43'1311.6
2017-Apr-08 10:15N 52°26' E 002°52'812.4
2017-Apr-08 09:37N 52°33' E 002°57'512.8
2017-Apr-08 09:13N 52°37' E 003°01'4013.0
2017-Apr-08 06:09N 53°14' E 003°26'2212.2
2017-Apr-08 04:19N 53°36' E 003°36'411.8
2017-Apr-08 04:00N 53°39' E 003°38'811.0
2017-Apr-08 03:17N 53°46' E 003°46'911.6
2017-Apr-08 02:32N 53°51' E 003°57'15911.9
2017-Apr-07 13:11N 55°59' E 006°42'212.1
2017-Apr-07 13:00N 56°01' E 006°44'15011.3
2017-Apr-06 23:41N 57°48' E 009°55'310.7
2017-Apr-06 23:22N 57°49' E 010°02'710.5
2017-Apr-06 22:40N 57°49' E 010°15'210.3
2017-Apr-06 22:28N 57°49' E 010°19'510.1
2017-Apr-06 21:58N 57°49' E 010°29'4 9.7
2017-Apr-06 21:30N 57°48' E 010°37'5 9.3
2017-Apr-06 21:00N 57°47' E 010°46'611.3
2017-Apr-06 20:30N 57°42' E 010°46'5 9.1
2017-Apr-06 20:00N 57°38' E 010°42'0 0.8
2017-Apr-06 19:24N 57°38' E 010°42'0 0.1
2017-Apr-06 19:00N 57°38' E 010°42'0 0.0
2017-Apr-06 18:06N 57°38' E 010°42'0 0.0
2017-Apr-06 17:48N 57°38' E 010°42'0 0.0
2017-Apr-06 17:27N 57°38' E 010°42'0 0.0
2017-Apr-06 17:00N 57°38' E 010°42'  

Dump ship's entire track history